Time;durP1;ratioP1;P1;durP2;ratioP2;P2;SDS_P1;SDS_P2;PMS_P1;PMS_P2;Temp;Humidity;BMP_temperature;BMP_pressure;BME280_temperature;BME280_humidity;BME280_pressure;Samples;Min_cycle;Max_cycle;Signal;HPM_P1;HPM_P2
2022/08/23 00:04:59;;;;;;;9.95;7.40;;;;;;;16.17;100.00;101447.16;10387760;28;20038;-78
2022/08/23 00:10:00;;;;;;;15.13;7.85;;;;;;;16.25;100.00;101465.22;10362333;28;20038;-78
2022/08/23 00:15:00;;;;;;;17.83;7.72;;;;;;;16.23;100.00;101462.72;10380026;28;20041;-78
2022/08/23 00:20:03;;;;;;;14.60;7.35;;;;;;;16.11;100.00;101453.81;10368921;28;20042;-77
2022/08/23 00:25:05;;;;;;;10.13;7.65;;;;;;;16.10;100.00;101460.47;10358333;28;20146;-78
2022/08/23 00:30:07;;;;;;;12.88;8.27;;;;;;;16.10;100.00;101457.69;10373853;28;20064;-76
2022/08/23 00:35:08;;;;;;;13.40;8.48;;;;;;;16.05;100.00;101455.75;10379847;28;20062;-77
2022/08/23 00:40:10;;;;;;;15.15;8.75;;;;;;;15.98;100.00;101438.53;10378727;28;20046;-77
2022/08/23 00:50:38;;;;;;;16.55;9.93;;;;;;;16.10;100.00;101460.47;10379578;28;20073;-76
2022/08/23 00:55:40;;;;;;;17.08;10.50;;;;;;;16.08;100.00;101451.56;10417731;28;20045;-77
2022/08/23 01:00:40;;;;;;;14.93;9.95;;;;;;;16.03;100.00;101430.19;10420004;28;20029;-77
2022/08/23 01:06:21;;;;;;;17.17;11.05;;;;;;;15.96;100.00;101428.78;10402818;28;20489;-77
2022/08/23 01:11:44;;;;;;;21.45;13.05;;;;;;;15.98;100.00;101441.31;10351911;28;20084;-76
2022/08/23 01:16:48;;;;;;;25.45;12.88;;;;;;;15.93;100.00;101438.53;10378080;28;20149;-75
2022/08/23 01:21:52;;;;;;;22.30;13.45;;;;;;;15.90;100.00;101442.69;10344195;28;20054;-77
2022/08/23 01:26:53;;;;;;;25.20;13.68;;;;;;;15.78;100.00;101438.53;10416529;28;20030;-77
2022/08/23 01:31:54;;;;;;;23.92;14.18;;;;;;;15.79;100.00;101441.00;10418433;28;20033;-76
2022/08/23 01:36:55;;;;;;;20.60;16.55;;;;;;;15.68;100.00;101434.56;10401398;28;20143;-77
2022/08/23 01:41:55;;;;;;;34.05;21.23;;;;;;;15.66;100.00;101435.97;10418234;28;20109;-76
2022/08/23 01:46:56;;;;;;;27.95;20.90;;;;;;;15.58;100.00;101439.28;10414499;28;20042;-76
2022/08/23 01:51:56;;;;;;;29.00;20.88;;;;;;;15.56;100.00;101447.88;10377141;28;20057;-75
2022/08/23 01:56:57;;;;;;;26.63;20.38;;;;;;;15.43;100.00;101427.03;10392493;28;20038;-71
2022/08/23 02:01:58;;;;;;;27.80;20.70;;;;;;;14.77;100.00;101349.16;10392848;28;20053;-76
2022/08/23 02:06:58;;;;;;;26.10;19.88;;;;;;;15.40;100.00;101455.34;10377569;28;20561;-77
2022/08/23 02:11:59;;;;;;;26.48;17.92;;;;;;;15.28;100.00;101447.25;10378023;28;20034;-76
2022/08/23 02:16:59;;;;;;;24.35;18.52;;;;;;;15.29;100.00;101450.84;10392251;28;20041;-77
2022/08/23 02:22:00;;;;;;;25.67;16.33;;;;;;;15.25;100.00;101456.09;10403482;28;20033;-76
2022/08/23 02:27:02;;;;;;;21.55;15.55;;;;;;;15.04;100.00;101441.31;10416260;28;20037;-77
2022/08/23 02:32:03;;;;;;;22.60;16.77;;;;;;;15.17;100.00;101461.34;10398411;28;20053;-77
2022/08/23 02:37:04;;;;;;;26.23;17.52;;;;;;;15.13;100.00;101461.91;10415567;28;20041;-76
2022/08/23 02:42:06;;;;;;;24.88;16.45;;;;;;;15.02;100.00;101443.53;10415885;28;20037;-76
2022/08/23 02:47:07;;;;;;;24.50;15.93;;;;;;;15.06;100.00;101444.66;10415699;28;20060;-76
2022/08/23 02:52:08;;;;;;;22.95;15.93;;;;;;;15.03;100.00;101461.84;10379555;28;20041;-76
2022/08/23 02:57:08;;;;;;;25.50;15.73;;;;;;;14.48;100.00;101369.78;10389822;28;20049;-76
2022/08/23 03:02:09;;;;;;;23.27;15.77;;;;;;;14.92;100.00;101443.47;10390102;28;20096;-76
2022/08/23 03:07:09;;;;;;;29.70;16.77;;;;;;;14.86;100.00;101444.56;10373723;28;20053;-75
2022/08/23 03:12:10;;;;;;;25.90;16.02;;;;;;;14.85;100.00;101451.22;10391126;28;20045;-72
2022/08/23 03:17:10;;;;;;;20.33;16.45;;;;;;;14.74;100.00;101442.00;10390228;28;20044;-76
2022/08/23 03:22:11;;;;;;;22.85;16.15;;;;;;;14.77;100.00;101451.72;10389217;28;20057;-76
2022/08/23 03:27:11;;;;;;;22.77;17.50;;;;;;;14.68;100.00;101448.63;10373178;28;20080;-76
2022/08/23 03:32:12;;;;;;;24.15;16.75;;;;;;;14.71;100.00;101465.53;10374265;28;20572;-76
2022/08/23 03:37:13;;;;;;;25.05;17.83;;;;;;;14.64;100.00;101453.88;10372724;28;20497;-77
2022/08/23 03:42:13;;;;;;;22.45;19.25;;;;;;;14.37;100.00;101419.88;10373174;28;20068;-77
2022/08/23 03:47:14;;;;;;;25.50;19.65;;;;;;;14.67;100.00;101458.84;10371868;28;20522;-76
2022/08/23 03:52:14;;;;;;;27.40;20.70;;;;;;;14.63;100.00;101460.50;10382987;28;20048;-76
2022/08/23 03:57:15;;;;;;;22.30;19.45;;;;;;;14.60;100.00;101469.34;10396516;28;20037;-76
2022/08/23 04:02:15;;;;;;;30.80;21.13;;;;;;;14.55;100.00;101474.81;10414056;28;20096;-76
2022/08/23 04:07:22;;;;;;;28.23;22.08;;;;;;;14.50;100.00;101466.47;10397090;28;20071;-76
2022/08/23 04:12:22;;;;;;;;;;;;;;;14.53;100.00;101474.25;10414244;28;20093;-77
2022/08/23 04:17:23;;;;;;;31.38;24.48;;;;;;;14.17;100.00;101426.91;10412968;28;19917;-77
2022/08/23 04:22:23;;;;;;;36.67;26.67;;;;;;;14.37;100.00;101466.97;10376140;28;20034;-76
2022/08/23 04:27:24;;;;;;;38.90;26.70;;;;;;;14.44;100.00;101475.84;10369781;28;20541;-76
2022/08/23 04:32:24;;;;;;;45.38;28.67;;;;;;;14.36;100.00;101468.88;10387302;28;20038;-76
2022/08/23 04:37:26;;;;;;;37.13;27.00;;;;;;;14.29;100.00;101469.09;10388408;28;20054;-76
2022/08/23 04:42:27;;;;;;;42.85;29.52;;;;;;;14.40;100.00;101485.81;10388089;28;20101;-76
2022/08/23 04:47:28;;;;;;;38.13;30.38;;;;;;;14.43;100.00;101490.81;10388299;28;20042;-76
2022/08/23 04:52:28;;;;;;;46.17;33.25;;;;;;;14.47;100.00;101489.16;10372119;28;20030;-75
2022/08/23 04:57:29;;;;;;;40.63;32.05;;;;;;;14.50;100.00;101485.88;10378062;28;20033;-74
2022/08/23 05:02:29;;;;;;;49.30;34.55;;;;;;;14.63;100.00;101507.59;10377789;28;20108;-75
2022/08/23 05:07:30;;;;;;;40.90;33.88;;;;;;;14.72;100.00;101505.19;10379060;28;20038;-76
2022/08/23 05:12:30;;;;;;;47.50;35.25;;;;;;;14.88;100.00;101506.09;10380427;28;20034;-77
2022/08/23 05:17:31;;;;;;;40.22;35.92;;;;;;;14.97;100.00;101500.91;10379827;28;20034;-78
2022/08/23 05:22:32;;;;;;;44.28;36.30;;;;;;;15.02;100.00;101503.69;10402838;28;20069;-76
2022/08/23 05:27:33;;;;;;;37.75;33.53;;;;;;;15.18;100.00;101508.22;10379468;28;20038;-76
2022/08/23 05:32:33;;;;;;;39.70;33.95;;;;;;;15.17;100.00;101495.44;10378366;28;20037;-78
2022/08/23 05:37:34;;;;;;;32.53;29.10;;;;;;;15.33;100.00;101513.00;10377858;28;20061;-76
2022/08/23 05:42:34;;;;;;;33.72;29.48;;;;;;;15.36;100.00;101509.72;10377293;28;20048;-77
2022/08/23 05:47:35;;;;;;;31.67;27.52;;;;;;;15.61;100.00;101522.00;10393494;28;20064;-76
2022/08/23 05:52:35;;;;;;;30.35;25.27;;;;;;;15.81;100.00;101516.53;10388118;28;20049;-76
2022/08/23 05:57:37;;;;;;;24.30;21.75;;;;;;;16.13;100.00;101519.09;10418579;28;20087;-76
2022/08/23 06:02:37;;;;;;;26.40;19.23;;;;;;;16.46;100.00;101527.19;10397978;28;20073;-76
2022/08/23 06:07:38;;;;;;;20.45;17.77;;;;;;;16.68;100.00;101502.69;10375698;28;20041;-76
2022/08/23 06:12:38;;;;;;;17.58;15.60;;;;;;;17.10;100.00;101532.13;10377884;28;20048;-76
2022/08/23 06:17:39;;;;;;;16.95;15.18;;;;;;;17.34;100.00;101515.63;10375959;28;20402;-76
2022/08/23 06:22:40;;;;;;;16.45;14.77;;;;;;;17.62;100.00;101518.00;10391519;28;20042;-75
2022/08/23 06:27:40;;;;;;;14.48;13.05;;;;;;;17.84;100.00;101512.91;10415833;28;20041;-75
2022/08/23 06:32:41;;;;;;;21.65;16.08;;;;;;;18.17;100.00;101529.09;10417585;28;20072;-75
2022/08/23 06:37:41;;;;;;;14.48;12.07;;;;;;;18.35;100.00;101518.13;10415963;28;20034;-74
2022/08/23 06:42:43;;;;;;;13.60;12.05;;;;;;;18.59;100.00;101511.78;10417568;28;20048;-71
2022/08/23 06:47:43;;;;;;;15.68;10.73;;;;;;;18.90;100.00;101517.91;10416970;28;20072;-71
2022/08/23 06:52:48;;;;;;;17.90;10.45;;;;;;;19.14;100.00;101503.13;10389611;28;20080;-75
2022/08/23 06:57:48;;;;;;;12.77;9.15;;;;;;;19.40;100.00;101509.25;10372937;28;20060;-75
2022/08/23 07:02:48;;;;;;;11.77;9.50;;;;;;;19.32;100.00;101474.44;10375394;28;20030;-75
2022/08/23 07:07:49;;;;;;;9.27;7.55;;;;;;;19.77;100.00;101512.44;10358101;28;20038;-75
2022/08/23 07:12:49;;;;;;;10.20;7.97;;;;;;;19.96;100.00;101511.28;10390190;28;20033;-76
2022/08/23 07:17:50;;;;;;;7.47;6.75;;;;;;;20.20;100.00;101515.13;10373467;28;20038;-76
2022/08/23 07:22:50;;;;;;;10.02;6.10;;;;;;;20.48;100.00;101522.47;10375606;28;20034;-76
2022/08/23 07:27:53;;;;;;;9.45;6.13;;;;;;;20.47;100.00;101480.84;10388207;28;20057;-76
2022/08/23 07:32:53;;;;;;;10.27;5.72;;;;;;;20.81;100.00;101502.06;10406234;28;20114;-76
2022/08/23 07:37:55;;;;;;;6.78;6.10;;;;;;;21.13;100.00;101530.00;10416078;28;20033;-75
2022/08/23 07:42:56;;;;;;;8.32;5.60;;;;;;;21.25;100.00;101511.84;10415475;28;20075;-75
2022/08/23 07:47:57;;;;;;;7.32;5.60;;;;;;;21.49;100.00;101534.09;10416774;28;20064;-75
2022/08/23 07:52:57;;;;;;;7.22;5.20;;;;;;;21.70;100.00;101534.47;10379640;28;20034;-76
2022/08/23 07:57:58;;;;;;;6.03;4.68;;;;;;;21.65;100.00;101531.78;10373955;28;20041;-70
2022/08/23 08:02:58;;;;;;;9.88;5.18;;;;;;;21.56;100.00;101540.09;10373924;28;20045;-75
2022/08/23 08:07:59;;;;;;;10.13;4.80;;;;;;;21.58;100.00;101550.97;10388447;28;20111;-75
2022/08/23 08:12:59;;;;;;;9.77;4.50;;;;;;;21.76;100.00;101544.41;10355161;28;20061;-75
2022/08/23 08:18:00;;;;;;;8.85;5.63;;;;;;;22.06;100.00;101553.31;10373595;28;20049;-75
2022/08/23 08:23:01;;;;;;;12.45;4.57;;;;;;;22.25;100.00;101545.56;10406591;28;20489;-76
2022/08/23 08:28:01;;;;;;;11.43;4.03;;;;;;;22.61;100.00;101541.88;10428941;28;20026;-76
2022/08/23 08:33:02;;;;;;;9.55;3.95;;;;;;;22.74;100.00;101528.94;10422592;28;20044;-76
2022/08/23 08:38:02;;;;;;;7.45;4.20;;;;;;;23.08;100.00;101528.28;10420963;28;20456;-76
2022/08/23 08:43:34;;;;;;;9.80;3.90;;;;;;;23.41;100.00;101541.97;10420493;28;20421;-75
2022/08/23 08:48:40;;;;;;;5.45;3.10;;;;;;;23.80;100.00;101539.47;10419831;28;20038;-76
2022/08/23 08:53:43;;;;;;;6.10;3.55;;;;;;;23.89;100.00;101534.66;10361994;28;20052;-76
2022/08/23 08:58:51;;;;;;;4.40;3.30;;;;;;;24.24;99.83;101515.00;10394787;28;20038;-75
2022/08/23 09:03:52;;;;;;;7.80;2.90;;;;;;;24.57;96.55;101535.00;10412114;28;20034;-75
2022/08/23 09:09:11;;;;;;;6.38;3.03;;;;;;;24.88;95.10;101531.13;10378547;28;20053;-76
2022/08/23 09:14:29;;;;;;;9.77;3.30;;;;;;;25.40;94.17;101524.47;10380095;28;20057;-77
2022/08/23 09:19:31;;;;;;;7.10;2.80;;;;;;;25.81;90.51;101532.19;10400099;28;20079;-76
2022/08/23 09:24:31;;;;;;;5.10;3.30;;;;;;;26.09;85.22;101497.84;10419080;28;20033;-76
2022/08/23 09:29:32;;;;;;;6.13;3.05;;;;;;;26.55;84.82;101512.81;10418664;28;20044;-77
2022/08/23 09:34:36;;;;;;;5.32;2.45;;;;;;;26.71;82.95;101519.50;10418560;28;20068;-77
2022/08/23 09:39:38;;;;;;;5.75;3.13;;;;;;;26.83;82.32;101515.88;10400653;28;20105;-78
2022/08/23 09:44:40;;;;;;;4.55;2.67;;;;;;;27.10;82.35;101508.72;10417940;28;20034;-77
2022/08/23 09:49:43;;;;;;;5.47;3.00;;;;;;;27.48;77.03;101499.09;10417210;28;20029;-79
2022/08/23 09:54:43;;;;;;;8.82;2.90;;;;;;;27.48;75.46;101490.59;10403754;28;20066;-78
2022/08/23 09:59:45;;;;;;;9.15;2.70;;;;;;;27.19;72.84;101491.66;10338712;28;20487;-78
2022/08/23 10:05:04;;;;;;;4.90;2.78;;;;;;;27.39;74.39;101495.56;10352482;28;20037;-78
2022/08/23 10:10:28;;;;;;;6.47;2.88;;;;;;;27.63;72.19;101483.41;10374325;28;20045;-75
2022/08/23 10:16:02;;;;;;;8.82;2.90;;;;;;;27.74;73.70;101478.91;10391938;28;20041;-77
2022/08/23 10:21:14;;;;;;;4.50;2.38;;;;;;;27.74;71.60;101484.56;10377101;28;20052;-78
2022/08/23 10:26:24;;;;;;;5.47;2.92;;;;;;;27.56;71.21;101474.69;10415240;28;20180;-78
2022/08/23 10:31:34;;;;;;;4.78;2.17;;;;;;;27.65;70.75;101434.97;10399940;28;20192;-78
2022/08/23 10:36:57;;;;;;;6.35;2.10;;;;;;;28.14;68.75;101457.47;10415501;28;20172;-79
2022/08/23 10:42:24;;;;;;;4.38;1.90;;;;;;;28.36;67.50;101431.41;10400355;28;21521;-77
2022/08/23 10:47:29;;;;;;;4.13;1.90;;;;;;;28.93;66.74;101462.44;10400011;28;20041;-78
2022/08/23 10:52:33;;;;;;;5.68;2.20;;;;;;;29.26;65.65;101445.06;10410890;28;20045;-78
2022/08/23 10:57:35;;;;;;;5.93;2.60;;;;;;;29.63;64.69;101452.38;10360154;28;20069;-78
2022/08/23 11:02:49;;;;;;;6.15;2.47;;;;;;;29.85;62.94;101454.53;10413491;28;20114;-77
2022/08/23 11:08:04;;;;;;;3.88;2.47;;;;;;;29.88;63.75;101453.75;10399399;28;20042;-77
2022/08/23 11:13:10;;;;;;;4.65;2.50;;;;;;;30.04;61.76;101450.84;10398843;28;20494;-77
2022/08/23 11:18:43;;;;;;;7.03;2.47;;;;;;;30.21;62.39;101448.75;10416193;28;20045;-78
2022/08/23 11:23:57;;;;;;;4.72;2.10;;;;;;;30.36;61.31;101445.00;10430775;28;20040;-78
2022/08/23 11:29:06;;;;;;;4.78;2.10;;;;;;;30.18;60.34;101433.28;10415923;28;20034;-76
2022/08/23 11:34:25;;;;;;;5.35;2.05;;;;;;;30.30;59.14;101444.50;10372899;28;20508;-81
2022/08/23 11:39:25;;;;;;;4.30;2.58;;;;;;;30.68;58.01;101434.25;10430709;28;20042;-83
2022/08/23 11:44:38;;;;;;;4.07;2.22;;;;;;;31.01;57.58;101441.31;10414780;28;20038;-82
2022/08/23 11:49:53;;;;;;;8.23;2.45;;;;;;;31.28;56.42;101442.16;10356544;28;20040;-83
2022/08/23 11:54:59;;;;;;;3.58;1.80;;;;;;;31.44;56.80;101438.34;10341139;28;20054;-80
2022/08/23 12:00:11;;;;;;;6.30;2.25;;;;;;;31.89;54.50;101427.97;10348132;28;20596;-81
2022/08/23 12:05:16;;;;;;;3.92;1.70;;;;;;;32.30;52.14;101419.50;10391911;28;20066;-85
2022/08/23 12:10:37;;;;;;;5.72;2.08;;;;;;;33.12;49.60;101411.72;10382261;28;20049;-81
2022/08/23 12:16:09;;;;;;;3.58;1.92;;;;;;;33.93;47.84;101415.44;10394929;28;20066;-78
2022/08/23 12:21:28;;;;;;;4.63;2.65;;;;;;;34.74;45.62;101386.63;10395930;28;20129;-81
2022/08/23 12:26:37;;;;;;;4.97;2.03;;;;;;;34.79;43.96;101389.06;10383293;28;20041;-78
2022/08/23 12:31:52;;;;;;;5.47;2.00;;;;;;;34.94;45.11;101410.72;10379930;28;20099;-76
2022/08/23 12:36:59;;;;;;;6.17;2.63;;;;;;;35.55;42.21;101378.28;10363102;28;20061;-75
2022/08/23 12:42:12;;;;;;;4.85;2.40;;;;;;;36.20;42.62;101384.56;10418834;28;20041;-78
2022/08/23 12:47:15;;;;;;;5.75;2.25;;;;;;;36.62;40.21;101382.63;10349245;28;20042;-78
2022/08/23 12:52:16;;;;;;;5.18;2.35;;;;;;;36.52;38.10;101377.75;10402067;28;20049;-79
2022/08/23 12:57:18;;;;;;;3.05;2.10;;;;;;;36.81;39.35;101377.56;10404097;28;20074;-78
2022/08/23 13:02:25;;;;;;;5.43;2.10;;;;;;;36.79;37.72;101374.28;10361136;28;20037;-78
2022/08/23 13:07:25;;;;;;;6.88;2.28;;;;;;;35.79;38.40;101379.44;10345920;28;20049;-78
2022/08/23 13:12:26;;;;;;;9.35;2.80;;;;;;;34.85;39.25;101375.97;10361849;28;20037;-72
2022/08/23 13:17:26;;;;;;;3.95;2.38;;;;;;;35.15;39.60;101387.00;10360604;28;20068;-76
2022/08/23 13:22:28;;;;;;;3.70;2.13;;;;;;;35.14;40.47;101388.25;10393854;28;20033;-76
2022/08/23 13:27:31;;;;;;;3.35;2.28;;;;;;;35.58;41.60;101386.06;10383326;28;20280;-77
2022/08/23 13:32:42;;;;;;;4.10;2.20;;;;;;;35.26;40.80;101394.75;10392862;28;20034;-77
2022/08/23 13:37:46;;;;;;;6.13;2.20;;;;;;;34.45;40.71;101395.16;10360854;28;20042;-77
2022/08/23 13:42:48;;;;;;;5.07;1.90;;;;;;;34.22;40.01;101386.16;10359075;28;20046;-78
2022/08/23 13:47:50;;;;;;;6.07;2.38;;;;;;;34.24;40.55;101335.13;10376247;28;20498;-79
2022/08/23 13:52:51;;;;;;;3.78;2.30;;;;;;;35.63;39.74;101373.34;10334580;28;20098;-79
2022/08/23 13:57:51;;;;;;;3.55;1.95;;;;;;;36.60;38.73;101370.72;10343076;28;20068;-81
2022/08/23 14:02:52;;;;;;;5.53;2.13;;;;;;;37.16;38.51;101377.19;10359470;28;20033;-81
2022/08/23 14:07:52;;;;;;;4.00;2.53;;;;;;;37.51;36.68;101363.66;10343201;28;20033;-82
2022/08/23 14:12:53;;;;;;;6.20;2.45;;;;;;;37.58;35.63;101356.25;10359904;28;20042;-84
2022/08/23 14:17:53;;;;;;;6.32;2.28;;;;;;;36.94;36.31;101364.28;10339510;28;20060;-84
2022/08/23 14:22:54;;;;;;;7.18;2.50;;;;;;;35.75;35.68;101355.75;10302907;28;20034;-83
2022/08/23 14:27:54;;;;;;;3.50;2.17;;;;;;;36.02;35.35;101361.72;10345020;28;20042;-77
2022/08/23 14:32:55;;;;;;;5.15;2.50;;;;;;;37.18;36.52;101364.50;10359179;28;23124;-82
2022/08/23 14:37:56;;;;;;;7.72;3.30;;;;;;;36.31;34.37;101348.03;10342397;28;20061;-86
2022/08/23 14:42:57;;;;;;;7.50;2.03;;;;;;;35.24;37.00;101369.41;10357428;28;20082;-85
2022/08/23 14:47:57;;;;;;;3.33;1.83;;;;;;;34.39;38.20;101353.91;10389628;28;20054;-86
2022/08/23 14:53:01;;;;;;;7.07;2.22;;;;;;;33.91;39.25;101372.19;10340382;28;20042;-84
2022/08/23 14:58:02;;;;;;;5.53;2.08;;;;;;;33.37;41.48;101373.97;10347306;28;20038;-85
2022/08/23 15:03:04;;;;;;;4.65;2.33;;;;;;;32.58;39.50;101356.31;10355658;28;20447;-84
2022/08/23 15:08:04;;;;;;;9.45;2.42;;;;;;;32.03;43.47;101373.25;10331911;28;20034;-86
2022/08/23 15:13:05;;;;;;;7.07;2.40;;;;;;;31.66;44.37;101385.38;10356189;28;20414;-86
2022/08/23 15:18:07;;;;;;;5.82;1.92;;;;;;;31.21;46.71;101398.56;10371316;28;20046;-86
2022/08/23 15:23:08;;;;;;;7.40;2.67;;;;;;;30.86;46.83;101396.75;10392037;28;20076;-86
2022/08/23 15:28:10;;;;;;;2.92;1.92;;;;;;;30.56;48.26;101384.09;10413341;28;20057;-88
2022/08/23 15:33:10;;;;;;;5.53;2.22;;;;;;;30.81;48.56;101380.03;10380117;28;20045;-89
2022/08/23 15:38:11;;;;;;;7.82;2.33;;;;;;;32.53;44.58;101382.28;10386848;28;20034;-86
2022/08/23 15:43:12;;;;;;;4.75;2.53;;;;;;;33.98;43.31;101374.22;10386428;28;20046;-87
2022/08/23 15:48:24;;;;;;;6.78;2.35;;;;;;;35.53;40.74;101364.38;10394961;28;20491;-87
2022/08/23 15:53:25;;;;;;;5.63;2.30;;;;;;;36.67;38.83;101359.25;10355792;28;20034;-89
2022/08/23 15:58:25;;;;;;;7.18;2.17;;;;;;;37.17;36.77;101334.97;10329881;28;20085;-88
2022/08/23 16:03:26;;;;;;;6.05;2.58;;;;;;;37.16;37.76;101348.50;10309357;28;20037;-86
2022/08/23 16:08:31;;;;;;;5.07;2.53;;;;;;;36.29;35.71;101290.31;10336174;28;20053;-75
2022/08/23 16:13:31;;;;;;;;;;;;;;;35.53;37.08;101344.34;10402233;28;20494;-89
2022/08/23 16:18:32;;;;;;;5.10;2.27;;;;;;;33.95;37.74;101318.72;10411971;28;19921;-86
2022/08/23 16:23:32;;;;;;;4.50;2.30;;;;;;;32.74;42.76;101371.09;10405142;28;20283;-84
2022/08/23 16:28:32;;;;;;;5.30;3.45;;;;;;;31.62;42.71;101362.56;10405383;28;20034;-84
2022/08/23 16:33:33;;;;;;;8.88;2.35;;;;;;;30.89;48.20;101396.03;10404579;28;20060;-84
2022/08/23 16:38:34;;;;;;;5.57;2.33;;;;;;;30.15;51.99;101408.47;10367216;28;20038;-83
2022/08/23 16:43:34;;;;;;;4.68;2.55;;;;;;;29.57;51.87;101407.25;10368245;28;20038;-83
2022/08/23 16:48:35;;;;;;;4.05;2.80;;;;;;;29.40;51.87;101396.34;10409296;28;20049;-82
2022/08/23 16:53:36;;;;;;;6.50;3.15;;;;;;;29.20;54.17;101400.34;10390212;28;20078;-84
2022/08/23 16:58:36;;;;;;;5.53;2.53;;;;;;;28.91;56.54;101417.44;10386229;28;20512;-78
2022/08/23 17:03:37;;;;;;;4.63;2.97;;;;;;;28.60;57.61;101426.78;10385865;28;20039;-87
2022/08/23 17:08:37;;;;;;;9.65;2.75;;;;;;;28.23;58.61;101423.31;10338855;28;20114;-86
2022/08/23 17:13:38;;;;;;;6.07;2.60;;;;;;;27.63;59.98;101386.41;10353402;28;20042;-86
2022/08/23 17:18:39;;;;;;;8.38;2.90;;;;;;;27.67;62.56;101435.44;10351610;28;20092;-83
2022/08/23 17:23:39;;;;;;;4.90;2.67;;;;;;;27.53;63.80;101444.28;10336305;28;20521;-86
2022/08/23 17:28:41;;;;;;;11.80;3.22;;;;;;;27.44;67.12;101441.59;10338464;28;20043;-84
2022/08/23 17:33:42;;;;;;;6.93;2.80;;;;;;;27.41;66.66;101441.47;10334371;28;20034;-89
2022/08/23 17:38:42;;;;;;;6.78;2.95;;;;;;;27.41;64.95;101444.31;10350253;28;20038;-80
2022/08/23 17:43:43;;;;;;;4.53;2.65;;;;;;;27.26;64.86;101429.72;10352176;28;20105;-87
2022/08/23 17:48:43;;;;;;;5.63;2.80;;;;;;;27.02;66.48;101450.31;10368319;28;20068;-73
2022/08/23 17:53:45;;;;;;;4.13;2.85;;;;;;;26.72;68.69;101459.00;10365262;28;20045;-87
2022/08/23 17:58:45;;;;;;;8.70;3.13;;;;;;;26.25;69.44;101436.75;10374083;28;20033;-84
2022/08/23 18:03:46;;;;;;;11.50;4.32;;;;;;;25.97;73.36;101459.09;10376915;28;20034;-86
2022/08/23 18:08:47;;;;;;;8.52;3.42;;;;;;;25.66;75.92;101471.59;10410428;28;20063;-87
2022/08/23 18:13:47;;;;;;;5.18;2.67;;;;;;;25.40;77.21;101468.94;10415826;28;20033;-87
2022/08/23 18:18:48;;;;;;;4.30;2.67;;;;;;;25.17;77.90;101488.91;10423732;28;20034;-88
2022/08/23 18:23:48;;;;;;;6.00;3.30;;;;;;;24.95;79.41;101495.66;10407010;28;20093;-88
2022/08/23 18:28:49;;;;;;;6.13;2.97;;;;;;;24.61;81.27;101490.13;10412206;28;20053;-88
2022/08/23 18:33:49;;;;;;;5.20;2.95;;;;;;;24.38;83.19;101508.00;10399365;28;20105;-86
2022/08/23 18:38:49;;;;;;;8.40;3.30;;;;;;;24.19;87.29;101521.63;10393935;28;20041;-85
2022/08/23 18:43:50;;;;;;;4.45;3.35;;;;;;;23.94;88.88;101526.09;10403848;28;20092;-86
2022/08/23 18:48:51;;;;;;;10.95;3.88;;;;;;;23.66;91.95;101515.09;10377103;28;20529;-87
2022/08/23 18:53:51;;;;;;;10.85;3.45;;;;;;;23.49;94.37;101523.47;10388656;28;20029;-86
2022/08/23 18:58:52;;;;;;;8.70;4.30;;;;;;;23.26;96.69;101522.75;10404212;28;20033;-87
2022/08/23 19:03:52;;;;;;;7.05;4.18;;;;;;;23.04;100.00;101527.28;10407337;28;20460;-86
2022/08/23 19:08:53;;;;;;;7.38;3.80;;;;;;;22.87;100.00;101532.78;10402744;28;20041;-88
2022/08/23 19:13:53;;;;;;;8.85;4.15;;;;;;;22.71;100.00;101541.59;10357854;28;20034;-86
2022/08/23 19:18:54;;;;;;;8.10;4.07;;;;;;;22.61;100.00;101555.91;10418580;28;20030;-86
2022/08/23 19:23:55;;;;;;;8.35;4.13;;;;;;;22.35;100.00;101547.31;10361194;28;20034;-82
2022/08/23 19:28:59;;;;;;;5.72;4.00;;;;;;;22.29;100.00;101557.00;10375289;28;20046;-74
2022/08/23 19:33:59;;;;;;;10.32;3.75;;;;;;;21.91;100.00;101518.00;10387510;28;20033;-85
2022/08/23 19:39:00;;;;;;;8.45;4.03;;;;;;;22.04;100.00;101549.97;10397629;28;20049;-83
2022/08/23 19:44:01;;;;;;;8.00;3.85;;;;;;;21.94;100.00;101563.06;10374182;28;20494;-83
2022/08/23 19:49:01;;;;;;;6.55;3.95;;;;;;;21.78;100.00;101553.34;10373937;28;20034;-86
2022/08/23 19:54:03;;;;;;;10.68;4.15;;;;;;;21.69;100.00;101572.06;10316395;28;20058;-86
2022/08/23 19:59:04;;;;;;;5.53;3.97;;;;;;;21.57;100.00;101575.38;10349786;28;20037;-86
2022/08/23 20:04:05;;;;;;;13.38;5.53;;;;;;;21.47;100.00;101570.81;10336823;28;20046;-86
2022/08/23 20:09:05;;;;;;;9.82;6.72;;;;;;;21.41;100.00;101594.41;10331919;28;20109;-85
2022/08/23 20:14:06;;;;;;;10.85;6.40;;;;;;;21.31;100.00;101594.63;10336501;28;20068;-85
2022/08/23 20:19:07;;;;;;;12.05;8.75;;;;;;;21.34;100.00;101599.63;10315524;28;20065;-88
2022/08/23 20:24:08;;;;;;;15.88;13.00;;;;;;;21.31;100.00;101608.63;10349182;28;20035;-83
2022/08/23 20:29:17;;;;;;;16.83;15.07;;;;;;;21.30;100.00;101595.78;10352073;28;20461;-85
2022/08/23 20:34:18;;;;;;;21.05;18.23;;;;;;;21.23;100.00;101612.13;10386201;28;20034;-84
2022/08/23 20:39:18;;;;;;;25.63;21.55;;;;;;;21.30;100.00;101626.59;10418951;28;20406;-83
2022/08/23 20:44:20;;;;;;;29.40;24.58;;;;;;;21.31;100.00;101622.63;10395608;28;20120;-85
2022/08/23 20:49:21;;;;;;;27.60;24.80;;;;;;;21.34;100.00;101619.22;10389990;28;20038;-86
2022/08/23 20:54:21;;;;;;;27.35;24.60;;;;;;;21.44;100.00;101638.66;10380930;28;20493;-84
2022/08/23 20:59:22;;;;;;;29.05;25.98;;;;;;;21.39;100.00;101602.31;10411959;28;20049;-85
2022/08/23 21:04:22;;;;;;;30.17;26.95;;;;;;;21.55;100.00;101628.91;10396778;28;20061;-85
2022/08/23 21:09:23;;;;;;;31.83;28.20;;;;;;;21.56;100.00;101624.97;10375509;28;20046;-88
2022/08/23 21:14:24;;;;;;;32.33;28.83;;;;;;;21.60;100.00;101638.34;10402843;28;20033;-84
2022/08/23 21:19:24;;;;;;;33.55;30.13;;;;;;;21.44;100.00;101621.88;10377226;28;20045;-74
2022/08/23 21:24:25;;;;;;;36.83;33.00;;;;;;;21.43;100.00;101645.41;10373633;28;20041;-85
2022/08/23 21:29:25;;;;;;;37.78;33.60;;;;;;;21.36;100.00;101639.34;10409237;28;20041;-85
2022/08/23 21:34:26;;;;;;;35.30;31.45;;;;;;;21.29;100.00;101639.75;10396031;28;20033;-85
2022/08/23 21:39:26;;;;;;;35.50;31.52;;;;;;;21.00;100.00;101595.22;10413004;28;20034;-85
2022/08/23 21:44:27;;;;;;;33.45;29.88;;;;;;;21.16;100.00;101652.56;10362844;28;20073;-85
2022/08/23 21:49:27;;;;;;;40.03;35.30;;;;;;;21.01;100.00;101635.22;10351456;28;20461;-85
2022/08/23 21:54:28;;;;;;;41.65;37.30;;;;;;;20.95;100.00;101649.31;10351553;28;20044;-84
2022/08/23 21:59:28;;;;;;;39.63;35.65;;;;;;;20.95;100.00;101654.91;10350861;28;20042;-87
2022/08/23 22:04:29;;;;;;;39.85;31.95;;;;;;;21.05;100.00;101653.91;10352211;28;20046;-83
2022/08/23 22:09:29;;;;;;;40.97;37.05;;;;;;;21.07;100.00;101640.44;10304384;28;20542;-85
2022/08/23 22:14:30;;;;;;;41.08;36.67;;;;;;;21.01;100.00;101638.84;10401467;28;20038;-85
2022/08/23 22:19:31;;;;;;;41.88;36.78;;;;;;;21.10;100.00;101645.41;10375998;28;20370;-84
2022/08/23 22:24:31;;;;;;;43.35;38.80;;;;;;;21.08;100.00;101647.69;10398762;28;20033;-84
2022/08/23 22:29:32;;;;;;;43.88;38.45;;;;;;;21.03;100.00;101644.97;10375911;28;20391;-85
2022/08/23 22:34:32;;;;;;;43.03;38.53;;;;;;;20.95;100.00;101642.88;10380659;28;20045;-86
2022/08/23 22:39:33;;;;;;;43.35;38.97;;;;;;;20.89;100.00;101649.69;10399554;28;20053;-86
2022/08/23 22:44:33;;;;;;;46.83;41.70;;;;;;;20.73;100.00;101647.16;10399360;28;20099;-85
2022/08/23 22:49:34;;;;;;;48.90;43.58;;;;;;;20.62;100.00;101651.25;10401328;28;20098;-84
2022/08/23 22:54:34;;;;;;;54.35;48.67;;;;;;;20.40;100.00;101637.00;10417351;28;20568;-73
2022/08/23 22:59:35;;;;;;;58.58;52.42;;;;;;;20.36;100.00;101648.81;10416427;28;20497;-84